Aeroporto :
LOGIN :

Iscrizione | Disclaimer

   EN    FR    IT 

 










Sommario :    VFR   VFR Marginale   IFR   IFR Intensivo   IFR Molto Intensivo
Visibilità : 
Base nubi : 
>= 8 km
>= 3000ft
5 / 8 km
1000 / 3000 ft
1500m / 5 km
500 / 1000 ft
800 / 1500m
200 / 500 ft
< 800m
< 200 ft
Simboli :   Temporali  Nebbia  Neve Forte  Precipitazioni Forti  Vento > 20 kt
SIGMETs :   Varie  Temporali  Ghiacco  Turbolenza  Onda orograficha  Ceneri Vulcaniche






- Altitudine del aeroporto : 1046 ft
- Codice IATA : NUE


EDDN - Nuremberg

ULTIMO METAR :
  • 080320Z 14009KT 9999 BKN049 01/M02 Q1003

METARs OBSOLETI :
  • 080250Z 14007KT CAVOK 00/M02 Q1003
  • 080220Z 13008KT CAVOK M00/M02 Q1002
  • 080150Z 13008KT CAVOK M01/M02 Q1003
  • 080120Z 11008KT CAVOK M01/M02 Q1003
  • 080050Z 11007KT CAVOK M02/M03 Q1004

TAF TAF EDDN
Valido dal 08 a 00 ore il 09 a 00 ore UTC


072300Z 0800/0824 12008KT 9999 BKN040
TEMPO 0804/0811 4000 -SN BKN012
PROB30
TEMPO 0804/0809 -FZRASN
BECMG 0814/0816 3000 -SN BKN008
TEMPO 0816/0824 1200 SN BKN003



MetMap, La meteo Aeronautica in un colpo d'occhio ! - Copyright ORBIFLY Dicembre 2007 - Disclaimer

ORBIFLY MET'MAP TEAM :

Programmazione e sviluppo : Alexandra Zaïnal
Concezione : Baudouin d'Aumeries
Aiuto per la programmazione : Marc-Olivier Méhu
Supporto tecnico e logistico : Manuel Goepfert
Aiuto per la traduzione : Arnaldo La Scala

Contatto : metmap@orbifly.com




FONTI E CREDITI :

   NOAA